Time;durP1;ratioP1;P1;durP2;ratioP2;P2;SDS_P1;SDS_P2;PMS_P1;PMS_P2;Temp;Humidity;BMP_temperature;BMP_pressure;BME280_temperature;BME280_humidity;BME280_pressure;Samples;Min_cycle;Max_cycle;Signal;HPM_P1;HPM_P2
2023/06/24 00:00:55;;;;;;;0.73;0.30;;;15.90;99.90;;;;;;5129257;28;20201;-90
2023/06/24 00:03:27;;;;;;;0.60;0.30;;;15.80;99.90;;;;;;5129763;28;20573;-92
2023/06/24 00:06:03;;;;;;;3.22;0.50;;;15.90;99.90;;;;;;5125901;28;20305;-91
2023/06/24 00:08:36;;;;;;;0.55;0.35;;;16.00;99.90;;;;;;5105301;28;20254;-90
2023/06/24 00:11:11;;;;;;;0.52;0.30;;;16.10;99.90;;;;;;5115032;28;20203;-90
2023/06/24 00:13:45;;;;;;;1.05;0.50;;;16.20;99.90;;;;;;5119157;28;20199;-90
2023/06/24 00:16:25;;;;;;;1.58;0.30;;;16.20;99.90;;;;;;5121437;28;20194;-91
2023/06/24 00:19:14;;;;;;;2.67;0.43;;;16.20;99.90;;;;;;5111665;28;20184;-87
2023/06/24 00:21:56;;;;;;;1.00;0.47;;;16.20;99.90;;;;;;5125295;28;20191;-91
2023/06/24 00:27:32;;;;;;;3.20;1.40;;;16.10;99.90;;;;;;5126779;28;20272;-90
2023/06/24 00:30:27;;;;;;;0.75;0.55;;;16.20;99.90;;;;;;5127268;28;20226;-90
2023/06/24 00:33:00;;;;;;;1.30;0.50;;;16.30;99.90;;;;;;5123845;28;20665;-92
2023/06/24 00:35:32;;;;;;;0.95;0.50;;;16.40;99.90;;;;;;5125355;28;20234;-86
2023/06/24 00:38:05;;;;;;;1.02;0.30;;;16.30;99.90;;;;;;5124518;28;20218;-90
2023/06/24 00:40:38;;;;;;;1.42;0.40;;;16.40;99.90;;;;;;5118937;28;20226;-90
2023/06/24 00:43:11;;;;;;;1.65;0.45;;;16.50;99.90;;;;;;5119156;28;20217;-90
2023/06/24 00:45:53;;;;;;;0.80;0.40;;;16.50;99.90;;;;;;5122653;28;20290;-88
2023/06/24 00:48:31;;;;;;;0.55;0.40;;;16.60;99.90;;;;;;5093594;28;20221;-90
2023/06/24 00:51:05;;;;;;;1.65;0.57;;;16.80;99.90;;;;;;5122604;28;20221;-86
2023/06/24 00:53:38;;;;;;;0.80;0.40;;;16.80;99.90;;;;;;5123928;28;20209;-86
2023/06/24 00:56:09;;;;;;;1.00;0.50;;;16.90;99.90;;;;;;5120326;28;20191;-87
2023/06/24 00:58:43;;;;;;;1.00;0.40;;;17.00;99.90;;;;;;5122494;28;20220;-88
2023/06/24 01:01:17;;;;;;;0.50;0.40;;;17.10;99.90;;;;;;5123692;28;20276;-87
2023/06/24 01:03:52;;;;;;;0.60;0.60;;;17.10;99.90;;;;;;5102299;28;20198;-86
2023/06/24 01:06:28;;;;;;;0.85;0.40;;;17.10;99.90;;;;;;5117324;28;20705;-91
2023/06/24 01:09:02;;;;;;;0.60;0.50;;;17.00;99.90;;;;;;5119045;28;20245;-91
2023/06/24 01:11:38;;;;;;;1.25;0.43;;;17.00;99.90;;;;;;5102185;28;20179;-90
2023/06/24 01:14:10;;;;;;;4.43;0.43;;;17.00;99.90;;;;;;5111302;28;20183;-91
2023/06/24 01:17:04;;;;;;;0.32;0.20;;;17.10;99.40;;;;;;5099136;28;20262;-90
2023/06/24 01:20:01;;;;;;;0.82;0.40;;;17.10;99.90;;;;;;5099082;28;20222;-91
2023/06/24 01:23:09;;;;;;;1.00;0.30;;;17.20;99.90;;;;;;5097091;28;20260;-91
2023/06/24 01:25:55;;;;;;;0.30;0.30;;;17.30;99.90;;;;;;5087634;28;20207;-89
2023/06/24 01:28:44;;;;;;;2.60;0.65;;;17.50;99.90;;;;;;5116186;28;20214;-88
2023/06/24 01:31:43;;;;;;;0.80;0.30;;;17.60;98.90;;;;;;5116355;28;20202;-90
2023/06/24 01:34:23;;;;;;;0.65;0.20;;;17.60;96.20;;;;;;5095786;28;20270;-90
2023/06/24 01:37:03;;;;;;;0.20;0.20;;;17.70;97.60;;;;;;5095797;28;20198;-88
2023/06/24 01:39:37;;;;;;;0.63;0.28;;;17.70;95.90;;;;;;5094335;28;20191;-89
2023/06/24 01:42:15;;;;;;;1.30;0.40;;;17.70;96.20;;;;;;5092899;28;20627;-89
2023/06/24 01:44:50;;;;;;;0.55;0.20;;;17.80;95.70;;;;;;5094373;28;20203;-89
2023/06/24 01:47:30;;;;;;;1.20;0.50;;;17.80;94.50;;;;;;5094815;28;20225;-90
2023/06/24 01:50:05;;;;;;;0.30;0.20;;;17.90;94.80;;;;;;5076714;28;20226;-89
2023/06/24 01:52:37;;;;;;;0.73;0.30;;;17.90;93.80;;;;;;5075523;28;20202;-89
2023/06/24 01:55:09;;;;;;;0.25;0.20;;;18.00;94.00;;;;;;5103196;28;20202;-88
2023/06/24 01:57:45;;;;;;;1.17;0.45;;;18.00;93.40;;;;;;5113202;28;20189;-88
2023/06/24 02:00:19;;;;;;;0.40;0.30;;;17.90;93.70;;;;;;5114209;28;20194;-89
2023/06/24 02:02:59;;;;;;;0.55;0.30;;;18.00;93.80;;;;;;5113939;28;20204;-88
2023/06/24 02:05:32;;;;;;;0.82;0.30;;;18.00;91.90;;;;;;5100540;28;20676;-89
2023/06/24 02:08:03;;;;;;;0.98;0.35;;;18.00;93.00;;;;;;5099969;28;20197;-89
2023/06/24 02:10:36;;;;;;;0.82;0.40;;;18.00;93.20;;;;;;5113642;28;20214;-89
2023/06/24 02:13:07;;;;;;;0.73;0.30;;;18.10;92.60;;;;;;5113653;28;20202;-89
2023/06/24 02:15:40;;;;;;;2.10;0.50;;;18.20;93.00;;;;;;5113655;28;20277;-89
2023/06/24 02:18:18;;;;;;;1.30;0.40;;;18.20;92.80;;;;;;5121454;28;20201;-88
2023/06/24 02:20:51;;;;;;;0.30;0.20;;;18.30;93.10;;;;;;5135885;28;20190;-89
2023/06/24 02:23:25;;;;;;;0.52;0.40;;;18.30;91.40;;;;;;5070919;28;20558;-89
2023/06/24 02:25:57;;;;;;;1.05;0.32;;;18.40;90.70;;;;;;5094057;28;20206;-89
2023/06/24 02:28:30;;;;;;;1.42;0.40;;;18.20;91.70;;;;;;5097205;28;20651;-88
2023/06/24 02:31:03;;;;;;;1.00;0.82;;;18.40;92.00;;;;;;5112837;28;20190;-90
2023/06/24 02:33:37;;;;;;;0.40;0.40;;;18.40;90.60;;;;;;5115184;28;20190;-90
2023/06/24 02:36:09;;;;;;;0.80;0.28;;;18.50;90.60;;;;;;5114609;28;20194;-89
2023/06/24 02:38:40;;;;;;;0.40;0.20;;;18.50;91.60;;;;;;5123425;28;20206;-90
2023/06/24 02:41:13;;;;;;;0.63;0.28;;;18.60;91.00;;;;;;5135698;28;20256;-89
2023/06/24 02:43:45;;;;;;;1.38;0.30;;;18.60;91.10;;;;;;5137461;28;20202;-90
2023/06/24 02:46:18;;;;;;;1.15;0.20;;;18.70;91.60;;;;;;5136397;28;20189;-90
2023/06/24 02:48:54;;;;;;;0.47;0.32;;;18.70;90.90;;;;;;5134968;28;20325;-90
2023/06/24 02:51:26;;;;;;;0.60;0.20;;;18.70;90.20;;;;;;5136556;28;20276;-89
2023/06/24 02:53:58;;;;;;;2.75;0.43;;;18.70;90.80;;;;;;5135907;28;20174;-89
2023/06/24 02:56:30;;;;;;;0.65;0.20;;;18.80;89.10;;;;;;5135759;28;20253;-91
2023/06/24 02:59:01;;;;;;;0.82;0.30;;;18.80;89.40;;;;;;5119770;28;20199;-90
2023/06/24 03:01:38;;;;;;;1.75;0.30;;;18.80;89.10;;;;;;5117135;28;20229;-90
2023/06/24 03:04:13;;;;;;;1.27;0.30;;;18.80;88.70;;;;;;5116220;28;20198;-91
2023/06/24 03:06:45;;;;;;;0.20;0.20;;;18.90;88.50;;;;;;5104702;28;20229;-90
2023/06/24 03:09:17;;;;;;;0.43;0.28;;;18.90;86.10;;;;;;5138416;28;20300;-89
2023/06/24 03:11:49;;;;;;;0.63;0.40;;;18.80;86.10;;;;;;5125670;28;20202;-92
2023/06/24 03:14:22;;;;;;;0.47;0.30;;;18.80;88.30;;;;;;5120027;28;20225;-90
2023/06/24 03:16:53;;;;;;;1.13;0.40;;;18.90;88.70;;;;;;5119960;28;20699;-90
2023/06/24 03:19:25;;;;;;;0.32;0.20;;;19.00;87.40;;;;;;5128988;28;20222;-90
2023/06/24 03:21:58;;;;;;;0.40;0.32;;;19.00;84.60;;;;;;5131137;28;20298;-89
2023/06/24 03:24:30;;;;;;;0.50;0.30;;;19.00;85.80;;;;;;5122374;28;20195;-90
2023/06/24 03:27:02;;;;;;;0.73;0.40;;;19.00;83.80;;;;;;5120197;28;20190;-90
2023/06/24 03:29:35;;;;;;;0.50;0.30;;;19.00;87.10;;;;;;5118717;28;20425;-90
2023/06/24 03:32:08;;;;;;;3.10;0.20;;;18.90;86.30;;;;;;5100480;28;20283;-90
2023/06/24 03:34:42;;;;;;;1.00;0.30;;;18.90;84.90;;;;;;5117272;28;20553;-90
2023/06/24 03:37:13;;;;;;;1.45;0.30;;;19.00;84.50;;;;;;5117969;28;20212;-88
2023/06/24 03:39:44;;;;;;;1.10;0.32;;;19.10;84.10;;;;;;5115651;28;20205;-89
2023/06/24 03:42:19;;;;;;;1.27;0.28;;;19.10;84.10;;;;;;5098447;28;20240;-89
2023/06/24 03:44:50;;;;;;;1.77;0.40;;;19.00;81.40;;;;;;5117086;28;20202;-88
2023/06/24 03:47:22;;;;;;;0.38;0.30;;;19.00;82.40;;;;;;5116524;28;20202;-88
2023/06/24 03:49:55;;;;;;;1.42;0.28;;;19.10;85.40;;;;;;5116153;28;20226;-88
2023/06/24 03:52:26;;;;;;;2.15;0.40;;;19.20;83.70;;;;;;5114174;28;20212;-88
2023/06/24 03:54:57;;;;;;;2.15;0.30;;;19.20;81.40;;;;;;5109976;28;20202;-88
2023/06/24 03:57:29;;;;;;;1.80;0.40;;;19.20;81.10;;;;;;5095853;28;20201;-88
2023/06/24 04:00:06;;;;;;;1.55;0.40;;;19.20;80.40;;;;;;5096002;28;20680;-89
2023/06/24 04:02:37;;;;;;;0.77;0.40;;;19.20;82.10;;;;;;5096080;28;20195;-89
2023/06/24 04:05:12;;;;;;;1.67;0.50;;;19.20;81.60;;;;;;5102497;28;20202;-88
2023/06/24 04:07:46;;;;;;;0.45;0.30;;;19.20;80.40;;;;;;5116198;28;20200;-89
2023/06/24 04:10:17;;;;;;;0.68;0.30;;;19.20;78.10;;;;;;5116072;28;20253;-89
2023/06/24 04:12:49;;;;;;;1.23;0.40;;;19.20;78.60;;;;;;5098195;28;20195;-89
2023/06/24 04:15:21;;;;;;;1.05;0.30;;;19.30;80.10;;;;;;5095578;28;20195;-89
2023/06/24 04:17:54;;;;;;;0.45;0.20;;;19.20;83.20;;;;;;5078038;28;20196;-88
2023/06/24 04:20:27;;;;;;;0.55;0.40;;;19.20;84.00;;;;;;5094408;28;20195;-88
2023/06/24 04:22:58;;;;;;;0.75;0.30;;;19.20;84.20;;;;;;5095001;28;20202;-88
2023/06/24 04:25:30;;;;;;;1.10;0.40;;;19.20;84.90;;;;;;5110991;28;20277;-89
2023/06/24 04:28:02;;;;;;;0.75;0.40;;;19.10;84.50;;;;;;5098342;28;20661;-89
2023/06/24 04:30:35;;;;;;;1.27;0.40;;;19.10;85.80;;;;;;5097499;28;20865;-92
2023/06/24 04:33:07;;;;;;;0.63;0.30;;;19.00;85.00;;;;;;5115872;28;20243;-88
2023/06/24 04:35:40;;;;;;;0.30;0.30;;;19.10;86.00;;;;;;5115667;28;20277;-88
2023/06/24 04:38:11;;;;;;;1.73;0.40;;;19.10;86.80;;;;;;5116068;28;20229;-88
2023/06/24 04:40:42;;;;;;;0.95;0.47;;;19.10;87.30;;;;;;5119202;28;20234;-92
2023/06/24 04:43:13;;;;;;;0.52;0.40;;;19.10;86.00;;;;;;5116172;28;20634;-87
2023/06/24 04:45:45;;;;;;;0.40;0.40;;;19.10;84.90;;;;;;5132724;28;20301;-87
2023/06/24 04:48:16;;;;;;;0.25;0.22;;;19.20;82.80;;;;;;5112322;28;20222;-89
2023/06/24 04:50:48;;;;;;;0.28;0.28;;;19.30;82.60;;;;;;5117768;28;20229;-89
2023/06/24 04:53:19;;;;;;;0.60;0.40;;;19.40;83.60;;;;;;5116776;28;20194;-89
2023/06/24 04:55:52;;;;;;;0.95;0.40;;;19.40;82.60;;;;;;5116201;28;20248;-89
2023/06/24 04:58:24;;;;;;;0.85;0.38;;;19.30;81.20;;;;;;5115451;28;20205;-91
2023/06/24 05:00:57;;;;;;;1.40;0.40;;;19.40;81.20;;;;;;5098038;28;20206;-91
2023/06/24 05:03:29;;;;;;;0.38;0.30;;;19.30;80.50;;;;;;5115628;28;20197;-91
2023/06/24 05:06:03;;;;;;;2.55;0.40;;;19.20;81.50;;;;;;5115940;28;20205;-92
2023/06/24 05:08:35;;;;;;;0.60;0.40;;;19.30;82.50;;;;;;5114927;28;20289;-91
2023/06/24 05:11:06;;;;;;;0.22;0.22;;;19.30;81.60;;;;;;5114833;28;20221;-91
2023/06/24 05:13:40;;;;;;;1.63;0.30;;;19.40;80.20;;;;;;5114371;28;20568;-89
2023/06/24 05:16:11;;;;;;;0.57;0.40;;;19.30;79.50;;;;;;5114948;28;20273;-90
2023/06/24 05:18:43;;;;;;;0.73;0.43;;;19.30;80.50;;;;;;5116016;28;20195;-91
2023/06/24 05:21:17;;;;;;;2.38;0.60;;;19.30;81.00;;;;;;5113901;28;20207;-92
2023/06/24 05:23:47;;;;;;;0.60;0.30;;;19.30;80.10;;;;;;5116003;28;20206;-91
2023/06/24 05:26:19;;;;;;;0.40;0.40;;;19.30;79.70;;;;;;5119553;28;20194;-90
2023/06/24 05:28:51;;;;;;;0.40;0.35;;;19.40;80.10;;;;;;5119766;28;20721;-91
2023/06/24 05:31:22;;;;;;;1.40;0.60;;;19.40;79.90;;;;;;5115172;28;20226;-90
2023/06/24 05:33:52;;;;;;;1.02;0.50;;;19.50;79.40;;;;;;5115935;28;20197;-91
2023/06/24 05:36:30;;;;;;;0.85;0.57;;;19.40;78.50;;;;;;5115001;28;20206;-91
2023/06/24 05:39:01;;;;;;;0.50;0.30;;;19.50;79.60;;;;;;5116326;28;20198;-92
2023/06/24 05:41:32;;;;;;;0.57;0.40;;;19.40;78.80;;;;;;5115127;28;20252;-91
2023/06/24 05:44:09;;;;;;;0.60;0.43;;;19.40;79.40;;;;;;5114832;28;20209;-91
2023/06/24 05:46:41;;;;;;;0.40;0.38;;;19.40;80.20;;;;;;5114882;28;20194;-91
2023/06/24 05:49:13;;;;;;;0.30;0.30;;;19.40;80.90;;;;;;5118229;28;20593;-91
2023/06/24 05:51:47;;;;;;;1.65;0.40;;;19.40;81.60;;;;;;5119696;28;20237;-90
2023/06/24 05:54:19;;;;;;;0.55;0.40;;;19.40;81.70;;;;;;5121598;28;20209;-91
2023/06/24 05:56:51;;;;;;;1.38;0.50;;;19.40;81.60;;;;;;5136900;28;20205;-90
2023/06/24 05:59:21;;;;;;;0.40;0.35;;;19.40;82.50;;;;;;5136234;28;20285;-88
2023/06/24 06:01:55;;;;;;;1.58;0.40;;;19.40;83.50;;;;;;5126884;28;20266;-91
2023/06/24 06:04:28;;;;;;;0.70;0.50;;;19.40;83.30;;;;;;5117878;28;20213;-90
2023/06/24 06:07:02;;;;;;;1.38;0.47;;;19.40;82.90;;;;;;5119742;28;20194;-92
2023/06/24 06:09:33;;;;;;;0.70;0.40;;;19.40;82.00;;;;;;5114962;28;20567;-91
2023/06/24 06:12:05;;;;;;;0.57;0.50;;;19.30;81.80;;;;;;5114545;28;20252;-91
2023/06/24 06:14:36;;;;;;;0.88;0.47;;;19.20;82.00;;;;;;5113979;28;20206;-92
2023/06/24 06:17:08;;;;;;;2.40;0.65;;;19.30;83.10;;;;;;5114005;28;20198;-91
2023/06/24 06:19:39;;;;;;;7.43;6.32;;;19.30;84.00;;;;;;5114340;28;20195;-92
2023/06/24 06:22:14;;;;;;;3.55;2.47;;;19.30;84.30;;;;;;5075606;28;20195;-92
2023/06/24 06:24:44;;;;;;;16.45;11.30;;;19.20;83.60;;;;;;5093193;28;20206;-92
2023/06/24 06:27:17;;;;;;;7.43;5.40;;;19.20;84.70;;;;;;5087562;28;20206;-90
2023/06/24 06:29:49;;;;;;;13.02;8.60;;;19.20;84.60;;;;;;5113651;28;20653;-92
2023/06/24 06:32:23;;;;;;;85.05;53.28;;;19.10;84.00;;;;;;5114172;28;20206;-91
2023/06/24 06:34:53;;;;;;;111.22;67.03;;;19.10;84.50;;;;;;5113711;28;20198;-89
2023/06/24 06:37:27;;;;;;;112.18;70.53;;;19.10;85.30;;;;;;5112573;28;20202;-91
2023/06/24 06:39:58;;;;;;;59.33;41.33;;;19.00;85.90;;;;;;5113074;28;20198;-91
2023/06/24 06:42:30;;;;;;;34.72;25.20;;;18.80;87.10;;;;;;5113589;28;20198;-89
2023/06/24 06:45:00;;;;;;;57.88;45.70;;;18.80;87.20;;;;;;5113200;28;20263;-90
2023/06/24 06:47:33;;;;;;;37.85;30.27;;;18.70;89.40;;;;;;5113293;28;20202;-91
2023/06/24 06:50:05;;;;;;;25.05;20.23;;;18.60;89.10;;;;;;5114877;28;20203;-91
2023/06/24 06:52:40;;;;;;;23.25;19.67;;;18.60;89.50;;;;;;5113147;28;20195;-90
2023/06/24 06:55:12;;;;;;;13.50;10.85;;;18.50;90.70;;;;;;5114179;28;20190;-89
2023/06/24 06:57:43;;;;;;;8.23;7.10;;;18.40;91.70;;;;;;5113644;28;20194;-91
2023/06/24 07:00:15;;;;;;;6.10;5.50;;;18.30;92.10;;;;;;5113147;28;20665;-90
2023/06/24 07:02:46;;;;;;;4.22;3.65;;;18.30;92.90;;;;;;5134285;28;20205;-90
2023/06/24 07:05:18;;;;;;;1.98;1.80;;;18.20;92.80;;;;;;5133382;28;20200;-90
2023/06/24 07:07:51;;;;;;;1.73;1.58;;;18.10;92.70;;;;;;5135319;28;20209;-89
2023/06/24 07:10:25;;;;;;;0.90;0.85;;;18.00;93.10;;;;;;5137566;28;20229;-91
2023/06/24 07:12:58;;;;;;;2.10;0.70;;;17.90;93.40;;;;;;5123632;28;20206;-90
2023/06/24 07:15:29;;;;;;;1.10;0.80;;;17.90;93.30;;;;;;5116241;28;20190;-90
2023/06/24 07:18:00;;;;;;;0.80;0.70;;;17.80;93.70;;;;;;5113730;28;20195;-90
2023/06/24 07:20:34;;;;;;;1.52;0.90;;;17.70;94.60;;;;;;5113500;28;20310;-91
2023/06/24 07:23:08;;;;;;;1.55;1.20;;;17.70;94.10;;;;;;5112751;28;20203;-91
2023/06/24 07:25:39;;;;;;;1.20;1.10;;;17.60;93.90;;;;;;5112129;28;20195;-92
2023/06/24 07:28:11;;;;;;;2.40;1.27;;;17.50;93.20;;;;;;5113632;28;20201;-90
2023/06/24 07:30:42;;;;;;;2.47;1.65;;;17.50;95.40;;;;;;5115092;28;20219;-90
2023/06/24 07:33:13;;;;;;;2.13;1.92;;;17.40;96.50;;;;;;5127222;28;20206;-91
2023/06/24 07:35:44;;;;;;;4.80;3.70;;;17.40;97.80;;;;;;5122071;28;20264;-92
2023/06/24 07:38:22;;;;;;;6.18;5.57;;;17.30;96.10;;;;;;5118285;28;20684;-90
2023/06/24 07:40:54;;;;;;;19.65;17.65;;;17.30;95.70;;;;;;5096021;28;20230;-89
2023/06/24 07:43:25;;;;;;;11.20;10.02;;;17.20;96.30;;;;;;5113898;28;20676;-89
2023/06/24 07:45:59;;;;;;;12.55;11.35;;;17.10;95.10;;;;;;5111325;28;20199;-89
2023/06/24 07:48:30;;;;;;;14.20;11.93;;;17.10;94.50;;;;;;5094816;28;20199;-90
2023/06/24 07:51:04;;;;;;;9.88;8.85;;;17.00;94.30;;;;;;5097556;28;20627;-90
2023/06/24 07:53:37;;;;;;;7.63;6.72;;;17.00;95.00;;;;;;5109986;28;20199;-91
2023/06/24 07:56:09;;;;;;;8.82;7.05;;;17.00;94.20;;;;;;5114722;28;20191;-89
2023/06/24 07:58:39;;;;;;;5.60;4.35;;;16.90;93.40;;;;;;5115380;28;20199;-88
2023/06/24 08:01:11;;;;;;;5.65;4.97;;;16.90;92.70;;;;;;5136176;28;20200;-91
2023/06/24 08:03:43;;;;;;;3.95;3.53;;;16.90;93.10;;;;;;5122503;28;20194;-91
2023/06/24 08:06:17;;;;;;;3.03;2.40;;;16.90;92.10;;;;;;5098100;28;20649;-89
2023/06/24 08:08:52;;;;;;;2.88;2.38;;;16.90;91.50;;;;;;5105349;28;20211;-88
2023/06/24 08:11:24;;;;;;;5.72;5.10;;;16.90;89.80;;;;;;5117677;28;20216;-89
2023/06/24 08:13:56;;;;;;;5.68;3.90;;;16.90;89.80;;;;;;5116260;28;20278;-89
2023/06/24 08:16:26;;;;;;;4.07;3.55;;;16.90;88.70;;;;;;5115499;28;20182;-89
2023/06/24 08:18:57;;;;;;;2.70;2.30;;;16.90;88.50;;;;;;5115723;28;20203;-92
2023/06/24 08:21:29;;;;;;;4.63;4.05;;;16.90;88.40;;;;;;5116081;28;20187;-90
2023/06/24 08:24:03;;;;;;;2.60;2.28;;;16.90;89.80;;;;;;5095376;28;20226;-90
2023/06/24 08:26:35;;;;;;;13.02;10.43;;;16.90;89.40;;;;;;5120173;28;20202;-88
2023/06/24 08:29:07;;;;;;;6.60;5.57;;;16.80;90.00;;;;;;5120999;28;20226;-91
2023/06/24 08:31:46;;;;;;;5.78;4.15;;;16.80;90.10;;;;;;5126959;28;20218;-90
2023/06/24 08:34:17;;;;;;;2.15;1.90;;;16.70;90.00;;;;;;5126028;28;20201;-90
2023/06/24 08:36:48;;;;;;;4.15;3.35;;;16.70;90.00;;;;;;5122703;28;20193;-90
2023/06/24 08:39:23;;;;;;;3.42;2.45;;;16.60;90.60;;;;;;5112145;28;20261;-91
2023/06/24 08:42:12;;;;;;;2.88;2.20;;;16.60;91.20;;;;;;5101125;28;20231;-89
2023/06/24 08:44:44;;;;;;;2.65;2.03;;;16.60;90.30;;;;;;5108592;28;20194;-90
2023/06/24 08:47:21;;;;;;;2.42;1.80;;;16.50;90.10;;;;;;5105092;28;20565;-89
2023/06/24 08:49:59;;;;;;;2.95;1.80;;;16.40;90.50;;;;;;5124914;28;20182;-89
2023/06/24 08:52:35;;;;;;;2.13;1.85;;;16.40;90.60;;;;;;5123107;28;20279;-89
2023/06/24 08:55:21;;;;;;;2.15;1.88;;;16.30;90.30;;;;;;5103937;28;20244;-91
2023/06/24 08:57:53;;;;;;;2.28;2.03;;;16.30;90.90;;;;;;5104631;28;20206;-89
2023/06/24 09:00:27;;;;;;;2.83;2.10;;;16.30;91.10;;;;;;5114959;28;20202;-89
2023/06/24 09:03:02;;;;;;;2.58;2.03;;;16.30;90.50;;;;;;5123821;28;20167;-91
2023/06/24 09:05:33;;;;;;;1.90;1.70;;;16.30;90.40;;;;;;5125658;28;20201;-90
2023/06/24 09:08:07;;;;;;;2.28;1.95;;;16.30;90.00;;;;;;5122375;28;20210;-92
2023/06/24 09:10:42;;;;;;;2.40;1.60;;;16.20;90.00;;;;;;5111208;28;20202;-88
2023/06/24 09:13:16;;;;;;;1.60;1.33;;;16.20;89.50;;;;;;5131424;28;20198;-88
2023/06/24 09:15:52;;;;;;;3.22;2.92;;;16.20;89.80;;;;;;5132481;28;20198;-88
2023/06/24 09:18:28;;;;;;;9.63;8.25;;;16.20;88.90;;;;;;5128606;28;20253;-89
2023/06/24 09:21:04;;;;;;;8.48;7.13;;;16.20;90.10;;;;;;5128827;28;20213;-88
2023/06/24 09:23:42;;;;;;;5.70;4.20;;;16.20;90.60;;;;;;5123245;28;20666;-89
2023/06/24 09:26:18;;;;;;;8.82;7.97;;;16.10;90.30;;;;;;5122246;28;20228;-90
2023/06/24 09:28:55;;;;;;;5.03;4.53;;;16.10;90.00;;;;;;5118312;28;20170;-88
2023/06/24 09:31:28;;;;;;;4.55;4.15;;;16.10;89.80;;;;;;5136815;28;20210;-91
2023/06/24 09:34:04;;;;;;;3.63;3.33;;;16.10;88.50;;;;;;5132691;28;20194;-91
2023/06/24 09:36:39;;;;;;;3.53;3.22;;;16.10;88.30;;;;;;5138132;28;20205;-90
2023/06/24 09:39:11;;;;;;;2.50;2.30;;;16.10;88.70;;;;;;5113171;28;20205;-88
2023/06/24 09:41:55;;;;;;;1.60;1.50;;;16.00;89.30;;;;;;5103795;28;20235;-91
2023/06/24 09:44:27;;;;;;;1.67;1.40;;;16.00;88.90;;;;;;5102131;28;20271;-90
2023/06/24 09:47:02;;;;;;;2.08;1.38;;;16.00;89.00;;;;;;5100961;28;20201;-89
2023/06/24 09:49:35;;;;;;;1.88;1.40;;;16.00;89.00;;;;;;5106398;28;20204;-89
2023/06/24 09:52:16;;;;;;;2.60;1.65;;;15.90;90.00;;;;;;5123226;28;20241;-89
2023/06/24 09:54:54;;;;;;;1.60;1.40;;;15.90;90.00;;;;;;5119386;28;20256;-90
2023/06/24 09:57:33;;;;;;;1.60;1.50;;;16.00;90.10;;;;;;5121277;28;20198;-92
2023/06/24 10:00:05;;;;;;;1.65;1.48;;;15.90;89.90;;;;;;5124284;28;20278;-92
2023/06/24 10:02:38;;;;;;;1.50;1.40;;;15.90;89.40;;;;;;5124541;28;20203;-93
2023/06/24 10:05:10;;;;;;;1.10;1.00;;;15.90;89.40;;;;;;5122343;28;20194;-93
2023/06/24 10:07:41;;;;;;;1.55;1.10;;;15.90;89.00;;;;;;5117908;28;20202;-91
2023/06/24 10:10:14;;;;;;;1.50;1.17;;;15.90;90.10;;;;;;5119063;28;20254;-92
2023/06/24 10:12:49;;;;;;;1.10;1.00;;;15.90;91.50;;;;;;5117138;28;20285;-91
2023/06/24 10:15:20;;;;;;;3.47;1.13;;;15.80;92.10;;;;;;5116210;28;20204;-92
2023/06/24 10:17:51;;;;;;;1.40;1.13;;;15.90;92.30;;;;;;5115966;28;20675;-91
2023/06/24 10:20:32;;;;;;;1.40;1.23;;;15.80;93.40;;;;;;5119387;28;20195;-90
2023/06/24 10:23:12;;;;;;;1.92;1.40;;;15.80;92.00;;;;;;5135917;28;20574;-85
2023/06/24 10:29:58;;;;;;;2.40;1.38;;;15.80;93.70;;;;;;5000002;28;20221;-93
2023/06/24 10:59:44;;;;;;;1.50;1.40;;;15.40;94.80;;;;;;5033391;28;20202;-88
2023/06/24 11:02:54;;;;;;;1.80;1.50;;;15.50;96.80;;;;;;5033339;28;20681;-92
2023/06/24 11:11:30;;;;;;;2.15;1.40;;;15.30;94.60;;;;;;5030712;28;20221;-87
2023/06/24 11:14:12;;;;;;;1.55;1.20;;;15.40;95.30;;;;;;5013522;28;20198;-90
2023/06/24 11:23:12;;;;;;;1.60;1.50;;;15.30;98.10;;;;;;5106748;28;20284;-89
2023/06/24 11:26:02;;;;;;;3.05;1.60;;;15.20;98.10;;;;;;5110268;28;20240;-89
2023/06/24 11:28:38;;;;;;;2.70;2.13;;;15.10;98.80;;;;;;5105132;28;20562;-88
2023/06/24 11:41:25;;;;;;;1.63;1.30;;;14.90;99.50;;;;;;5105044;28;20227;-86
2023/06/24 11:43:57;;;;;;;1.60;1.45;;;15.00;99.50;;;;;;5114006;28;20203;-89
2023/06/24 11:46:36;;;;;;;1.30;1.20;;;15.00;97.90;;;;;;5123716;28;20213;-88
2023/06/24 11:52:05;;;;;;;1.10;1.00;;;15.00;98.10;;;;;;5130288;28;20245;-90
2023/06/24 11:57:57;;;;;;;1.58;1.23;;;15.00;97.30;;;;;;5126121;28;20206;-87
2023/06/24 12:00:34;;;;;;;2.50;1.38;;;15.00;98.00;;;;;;5128866;28;20497;-89
2023/06/24 12:03:34;;;;;;;1.70;1.17;;;15.00;98.30;;;;;;5133694;28;20158;-91
2023/06/24 12:06:05;;;;;;;1.77;1.35;;;14.90;98.50;;;;;;5126024;28;20216;-88
2023/06/24 12:08:40;;;;;;;1.55;1.45;;;14.90;98.70;;;;;;5109493;28;20199;-86
2023/06/24 12:11:17;;;;;;;3.50;1.50;;;14.90;99.30;;;;;;5095661;28;20254;-85
2023/06/24 12:13:56;;;;;;;2.15;1.58;;;14.90;99.90;;;;;;5111987;28;20195;-91
2023/06/24 12:19:37;;;;;;;1.95;1.20;;;14.80;99.90;;;;;;5123161;28;20277;-90
2023/06/24 12:22:08;;;;;;;1.70;1.27;;;14.80;99.90;;;;;;5118301;28;20202;-89
2023/06/24 12:24:39;;;;;;;1.50;1.23;;;14.80;99.90;;;;;;5117107;28;20207;-88
2023/06/24 12:27:11;;;;;;;2.17;1.30;;;14.80;99.90;;;;;;5116762;28;20199;-91
2023/06/24 12:29:46;;;;;;;1.48;0.93;;;14.80;99.80;;;;;;5116253;28;20201;-90
2023/06/24 12:32:18;;;;;;;1.25;1.05;;;14.80;99.30;;;;;;5098620;28;20313;-90
2023/06/24 12:34:49;;;;;;;1.30;1.20;;;14.80;99.20;;;;;;5097280;28;20195;-90
2023/06/24 12:37:23;;;;;;;1.40;1.30;;;14.80;99.20;;;;;;5096983;28;20203;-89
2023/06/24 12:39:56;;;;;;;1.40;1.10;;;14.80;99.60;;;;;;5098059;28;20222;-90
2023/06/24 12:42:27;;;;;;;1.20;1.00;;;14.80;99.70;;;;;;5117925;28;20206;-89
2023/06/24 12:45:00;;;;;;;1.10;1.00;;;14.80;99.90;;;;;;5116424;28;20676;-90
2023/06/24 12:47:32;;;;;;;2.05;1.17;;;14.80;99.90;;;;;;5116305;28;20195;-91
2023/06/24 12:50:06;;;;;;;1.58;1.20;;;14.90;99.90;;;;;;5099975;28;20202;-89
2023/06/24 12:52:37;;;;;;;1.25;1.05;;;14.80;99.90;;;;;;5107485;28;20240;-87
2023/06/24 12:55:08;;;;;;;2.30;1.10;;;14.80;99.90;;;;;;5113824;28;20277;-89
2023/06/24 12:57:41;;;;;;;1.13;0.90;;;14.80;99.90;;;;;;5113696;28;20212;-89
2023/06/24 13:00:21;;;;;;;1.02;0.82;;;14.80;99.90;;;;;;5114178;28;20199;-90
2023/06/24 13:02:53;;;;;;;2.95;1.10;;;14.80;99.90;;;;;;5117316;28;20183;-87
2023/06/24 13:05:24;;;;;;;1.38;1.10;;;14.80;99.90;;;;;;5114229;28;20199;-88
2023/06/24 13:07:55;;;;;;;1.40;0.90;;;14.80;99.90;;;;;;5099089;28;20187;-91
2023/06/24 13:10:26;;;;;;;0.70;0.70;;;14.80;99.90;;;;;;5095117;28;20207;-90
2023/06/24 13:12:57;;;;;;;1.30;1.00;;;14.80;99.90;;;;;;5093574;28;20225;-91
2023/06/24 13:15:31;;;;;;;1.13;0.88;;;14.80;99.90;;;;;;5108994;28;20198;-91
2023/06/24 13:18:03;;;;;;;0.73;0.63;;;14.80;99.90;;;;;;5116108;28;20197;-91
2023/06/24 13:20:34;;;;;;;0.60;0.60;;;14.80;99.90;;;;;;5098049;28;20256;-90
2023/06/24 13:23:05;;;;;;;0.50;0.50;;;14.80;99.90;;;;;;5099041;28;20198;-91
2023/06/24 13:25:37;;;;;;;0.70;0.50;;;14.90;99.90;;;;;;5114655;28;20281;-89
2023/06/24 13:28:08;;;;;;;0.60;0.47;;;14.90;99.90;;;;;;5114868;28;20202;-91
2023/06/24 13:30:41;;;;;;;0.60;0.40;;;14.90;99.90;;;;;;5114705;28;20213;-90
2023/06/24 13:33:12;;;;;;;1.05;0.50;;;14.80;99.90;;;;;;5113998;28;20599;-90
2023/06/24 13:35:46;;;;;;;0.45;0.40;;;14.80;99.90;;;;;;5115605;28;20642;-90
2023/06/24 13:38:18;;;;;;;0.77;0.50;;;14.80;99.90;;;;;;5116424;28;20183;-93
2023/06/24 13:40:49;;;;;;;0.57;0.57;;;14.80;99.90;;;;;;5102800;28;20267;-88
2023/06/24 13:43:20;;;;;;;0.98;0.60;;;14.80;99.90;;;;;;5114898;28;20191;-90
2023/06/24 13:45:54;;;;;;;0.60;0.52;;;14.80;99.90;;;;;;5092819;28;20199;-88
2023/06/24 13:48:25;;;;;;;0.70;0.65;;;14.80;99.90;;;;;;5099438;28;20201;-90
2023/06/24 13:50:57;;;;;;;0.70;0.50;;;14.70;99.90;;;;;;5102934;27;20190;-90
2023/06/24 13:53:28;;;;;;;0.57;0.57;;;14.70;99.90;;;;;;5106952;28;20697;-90
2023/06/24 13:56:01;;;;;;;1.65;0.80;;;14.70;99.90;;;;;;5079228;28;20310;-90
2023/06/24 13:58:33;;;;;;;0.73;0.63;;;14.70;99.90;;;;;;5117536;28;20202;-89
2023/06/24 14:01:07;;;;;;;1.38;0.60;;;14.60;99.90;;;;;;5128366;28;20636;-92
2023/06/24 14:03:39;;;;;;;0.60;0.60;;;14.70;99.90;;;;;;5114533;28;20189;-91
2023/06/24 14:06:10;;;;;;;1.00;0.80;;;14.70;99.90;;;;;;5113614;28;20201;-89
2023/06/24 14:08:42;;;;;;;0.75;0.70;;;14.60;99.90;;;;;;5117991;28;20195;-90
2023/06/24 14:11:14;;;;;;;1.27;0.90;;;14.50;99.90;;;;;;5114324;28;20201;-90
2023/06/24 14:13:47;;;;;;;1.73;1.02;;;14.40;99.90;;;;;;5112953;28;20222;-88
2023/06/24 14:16:22;;;;;;;1.20;0.90;;;14.30;99.90;;;;;;5112530;28;20201;-89
2023/06/24 14:18:53;;;;;;;1.30;0.85;;;14.40;99.90;;;;;;5113623;28;20198;-89
2023/06/24 14:21:24;;;;;;;1.33;0.82;;;14.40;99.90;;;;;;5113654;28;20206;-90
2023/06/24 14:23:55;;;;;;;1.10;0.80;;;14.40;99.90;;;;;;5112918;28;20202;-90
2023/06/24 14:26:26;;;;;;;1.08;0.73;;;14.40;99.90;;;;;;5112542;28;20205;-88